Berkshire, New York
Current Conditions -  °F | °C
As of 9:53 PM on Sunday 23 Nov 2014 (Local Time) from KBGM Reporting Station
Clear Clear  
Wind Chill: 41°   Ceiling: Unl
Heat Index: 46°   Visibility: 10mi
Dew Point: 31°   Wind: 12mph
Humidity: 56%   Direction: 150°SSE
Pressure: 29.91"   Gusts: NA
Location:  42.3°N, 76.19°W
Report Text: KBGM 240253Z 15010KT 10SM CLR 08/M01 A2991 RMK AO2 SLP134 T00781006 58019
Loading
Personal Weather Stations






























Interactive Weather Map New forecast layout! Learn more

10-Day Weather Forecast

Advertisements
Track Severe Weather on mobile